Perkins, Michigan
Current Conditions -  °F | °C
As of 8:35 PM on Tuesday 25 Nov 2014 (Local Time) from KESC Reporting Station
Clear Clear  
Wind Chill: 12°   Ceiling: Unl
Heat Index: 12°   Visibility: 10mi
Dew Point:   Wind: 3mph
Humidity: 85%   Direction: 290°WNW
Pressure: 30.08"   Gusts: NA
Location:  45.98°N, 87.07°W
Report Text: KESC 260135Z AUTO 29003KT 10SM CLR M11/M13 A3008 RMK AO1
Loading
Personal Weather Stations






























Interactive Weather Map New forecast layout! Learn more

10-Day Weather Forecast

Advertisements
Track Severe Weather on mobile